createdAt,value
2019-03-16T00:04:01.161Z,5.80
2019-03-16T00:08:55.024Z,5.87
2019-03-16T00:13:48.889Z,3.87
2019-03-16T00:18:43.055Z,5.00
2019-03-16T00:23:36.988Z,5.17
2019-03-16T00:28:30.841Z,4.13
2019-03-16T00:33:24.736Z,3.10
2019-03-16T00:38:18.595Z,3.67
2019-03-16T00:43:12.441Z,3.17
2019-03-16T00:48:06.292Z,3.60
2019-03-16T00:53:00.318Z,2.73
2019-03-16T00:57:54.177Z,2.90
2019-03-16T01:02:48.052Z,2.87
2019-03-16T01:07:42.182Z,2.90
2019-03-16T01:12:36.347Z,2.83
2019-03-16T01:17:30.269Z,3.10
2019-03-16T01:22:24.248Z,2.40
2019-03-16T01:27:18.142Z,2.23
2019-03-16T01:32:12.113Z,2.67
2019-03-16T01:37:06.373Z,2.13
2019-03-16T01:42:00.228Z,2.23
2019-03-16T01:46:54.403Z,2.20
2019-03-16T01:51:48.254Z,2.10
2019-03-16T01:56:42.105Z,2.23
2019-03-16T02:01:36.093Z,2.50
2019-03-16T02:06:29.964Z,2.57
2019-03-16T02:11:23.895Z,2.50
2019-03-16T02:16:17.755Z,2.40
2019-03-16T02:21:11.654Z,2.63
2019-03-16T02:26:05.493Z,2.90
2019-03-16T02:30:59.364Z,2.63
2019-03-16T02:35:53.241Z,2.87
2019-03-16T02:40:47.088Z,2.63
2019-03-16T02:45:40.965Z,2.87
2019-03-16T02:50:34.859Z,2.87
2019-03-16T02:55:28.760Z,3.67
2019-03-16T03:00:22.746Z,2.80
2019-03-16T03:05:16.579Z,2.80
2019-03-16T03:10:12.726Z,3.00
2019-03-16T03:15:07.573Z,2.80
2019-03-16T03:20:01.430Z,3.03
2019-03-16T03:24:55.338Z,3.07
2019-03-16T03:29:49.158Z,3.10
2019-03-16T03:34:43.004Z,3.10
2019-03-16T03:39:36.869Z,2.93
2019-03-16T03:44:30.732Z,3.70
2019-03-16T03:49:24.567Z,3.17
2019-03-16T03:54:18.445Z,3.50
2019-03-16T03:59:12.378Z,3.40
2019-03-16T04:04:14.964Z,4.13
2019-03-16T04:09:03.717Z,3.57
2019-03-16T04:13:57.594Z,4.00
2019-03-16T04:18:52.115Z,4.00
2019-03-16T04:23:46.034Z,4.80
2019-03-16T04:28:39.893Z,5.27
2019-03-16T04:33:33.733Z,5.17
2019-03-16T04:38:27.598Z,5.50
2019-03-16T04:43:21.555Z,5.67
2019-03-16T04:48:15.438Z,5.80
2019-03-16T04:53:09.275Z,5.90
2019-03-16T04:58:03.145Z,6.53
2019-03-16T05:02:56.996Z,7.00
2019-03-16T05:07:50.850Z,8.10
2019-03-16T05:12:44.693Z,8.10
2019-03-16T05:17:38.533Z,8.23
2019-03-16T05:22:32.394Z,8.60
2019-03-16T05:27:26.286Z,9.03
2019-03-16T05:32:20.136Z,8.47
2019-03-16T05:37:13.986Z,9.10
2019-03-16T05:42:07.829Z,9.23
2019-03-16T05:47:01.729Z,8.33
2019-03-16T05:51:55.593Z,7.83
2019-03-16T05:56:49.478Z,7.60
2019-03-16T06:01:43.313Z,8.93
2019-03-16T06:06:37.169Z,9.23
2019-03-16T06:11:31.012Z,9.10
2019-03-16T06:16:24.959Z,8.63
2019-03-16T06:21:18.789Z,9.27
2019-03-16T06:26:12.688Z,9.50
2019-03-16T06:31:06.621Z,8.73
2019-03-16T06:36:00.480Z,7.73
2019-03-16T06:40:54.360Z,7.33
2019-03-16T06:45:48.217Z,6.67
2019-03-16T06:50:42.069Z,6.90
2019-03-16T06:55:35.936Z,6.77
2019-03-16T07:00:29.901Z,6.33
2019-03-16T07:05:37.260Z,6.23
2019-03-16T07:10:19.508Z,6.37
2019-03-16T07:15:14.457Z,5.37
2019-03-16T07:20:10.916Z,5.67
2019-03-16T07:25:05.532Z,4.57
2019-03-16T07:29:59.398Z,4.63
2019-03-16T07:34:53.240Z,3.83
2019-03-16T07:39:47.297Z,2.20
2019-03-16T07:44:41.145Z,1.83
2019-03-16T07:49:35.019Z,1.60
2019-03-16T07:54:31.251Z,1.40
2019-03-16T07:59:24.691Z,1.90
2019-03-16T08:04:18.556Z,1.80
2019-03-16T08:09:12.444Z,1.90
2019-03-16T08:14:06.266Z,1.63
2019-03-16T08:19:00.124Z,2.00
2019-03-16T08:23:54.023Z,1.70
2019-03-16T08:28:47.982Z,1.93
2019-03-16T08:33:41.833Z,1.97
2019-03-16T08:38:35.749Z,1.53
2019-03-16T08:43:29.637Z,1.53
2019-03-16T08:48:23.650Z,1.63
2019-03-16T08:53:17.587Z,1.77
2019-03-16T08:58:11.537Z,2.20
2019-03-16T09:03:05.542Z,2.10
2019-03-16T09:07:59.425Z,2.30
2019-03-16T09:12:55.187Z,2.60
2019-03-16T09:17:49.050Z,3.10
2019-03-16T09:22:43.041Z,3.10
2019-03-16T09:27:36.992Z,2.70
2019-03-16T09:32:30.853Z,1.93
2019-03-16T09:37:24.826Z,2.80
2019-03-16T09:42:18.695Z,2.60
2019-03-16T09:47:12.678Z,2.47
2019-03-16T09:52:06.583Z,2.33
2019-03-16T09:57:01.839Z,1.83
2019-03-16T10:01:55.934Z,1.60
2019-03-16T10:06:49.787Z,1.60
2019-03-16T10:11:43.713Z,1.50
2019-03-16T10:16:37.667Z,1.80
2019-03-16T10:21:31.540Z,1.60
2019-03-16T10:26:25.572Z,1.60
2019-03-16T10:31:19.450Z,1.80
2019-03-16T10:36:13.289Z,1.60
2019-03-16T10:41:07.183Z,1.70
2019-03-16T10:46:01.045Z,1.70
2019-03-16T10:50:54.936Z,2.03
2019-03-16T10:55:48.809Z,2.00
2019-03-16T11:00:42.692Z,1.87
2019-03-16T11:05:36.570Z,1.37
2019-03-16T11:10:30.466Z,1.60
2019-03-16T11:15:24.388Z,1.60
2019-03-16T11:20:18.416Z,1.40
2019-03-16T11:25:15.012Z,1.50
2019-03-16T11:30:13.554Z,1.33
2019-03-16T11:35:09.123Z,1.30
2019-03-16T11:40:06.817Z,1.50
2019-03-16T11:45:00.696Z,1.50
2019-03-16T11:49:54.601Z,1.30
2019-03-16T11:54:48.525Z,1.40
2019-03-16T11:59:42.406Z,1.50
2019-03-16T12:04:36.302Z,1.20
2019-03-16T12:09:30.176Z,1.07
2019-03-16T12:14:24.037Z,1.20
2019-03-16T12:19:17.940Z,1.00
2019-03-16T12:24:11.981Z,1.03
2019-03-16T12:29:05.846Z,1.50
2019-03-16T12:33:59.724Z,1.43
2019-03-16T12:38:53.698Z,1.30
2019-03-16T12:43:47.583Z,1.50
2019-03-16T12:48:41.459Z,1.53
2019-03-16T12:53:35.451Z,1.50
2019-03-16T12:58:29.463Z,1.40
2019-03-16T13:03:23.326Z,1.60
2019-03-16T13:08:17.234Z,1.80
2019-03-16T13:13:11.250Z,1.77
2019-03-16T13:18:05.180Z,1.77
2019-03-16T13:22:59.345Z,2.33
2019-03-16T13:27:53.227Z,1.40
2019-03-16T13:32:47.227Z,1.90
2019-03-16T13:37:41.305Z,2.30
2019-03-16T13:42:35.299Z,2.10
2019-03-16T13:47:29.184Z,1.80
2019-03-16T13:52:23.133Z,1.87
2019-03-16T13:57:16.978Z,1.70
2019-03-16T14:02:10.863Z,2.00
2019-03-16T14:07:05.310Z,2.03
2019-03-16T14:11:59.288Z,1.67
2019-03-16T14:16:53.150Z,1.90
2019-03-16T14:21:47.017Z,1.90
2019-03-16T14:26:42.672Z,1.50
2019-03-16T14:31:36.692Z,1.67
2019-03-16T14:36:30.592Z,1.80
2019-03-16T14:41:24.493Z,1.70
2019-03-16T14:46:18.881Z,1.70
2019-03-16T14:51:12.764Z,1.73
2019-03-16T14:56:06.656Z,2.97
2019-03-16T15:01:00.883Z,2.37
2019-03-16T15:05:54.830Z,5.30
2019-03-16T15:10:48.968Z,2.00
2019-03-16T15:15:42.937Z,2.13
2019-03-16T15:20:36.813Z,2.10
2019-03-16T15:25:30.885Z,2.90
2019-03-16T15:30:24.735Z,3.97
2019-03-16T15:35:18.618Z,3.27
2019-03-16T15:40:13.694Z,2.40
2019-03-16T15:45:28.627Z,2.10
2019-03-16T15:50:22.513Z,1.87
2019-03-16T15:55:16.612Z,2.53
2019-03-16T16:00:15.081Z,2.70
2019-03-16T16:05:09.441Z,2.90
2019-03-16T16:10:08.712Z,2.30
2019-03-16T16:15:05.492Z,2.20
2019-03-16T16:19:59.576Z,2.37
2019-03-16T16:24:53.617Z,2.70
2019-03-16T16:29:47.495Z,2.30
2019-03-16T16:34:41.530Z,2.65
2019-03-16T16:39:35.436Z,2.63
2019-03-16T16:44:29.537Z,2.60
2019-03-16T16:49:23.417Z,2.50
2019-03-16T16:54:17.422Z,2.17
2019-03-16T16:59:11.296Z,2.40
2019-03-16T17:04:05.297Z,2.40
2019-03-16T17:08:59.165Z,4.10
2019-03-16T17:13:53.136Z,3.83
2019-03-16T17:18:47.127Z,3.40
2019-03-16T17:23:41.044Z,2.30
2019-03-16T17:28:35.167Z,2.50
2019-03-16T17:33:29.148Z,4.37
2019-03-16T17:38:23.021Z,2.83
2019-03-16T17:43:17.036Z,3.37
2019-03-16T17:48:11.068Z,2.90
2019-03-16T17:53:04.971Z,3.63
2019-03-16T17:57:58.822Z,3.30
2019-03-16T18:02:52.880Z,3.00
2019-03-16T18:07:46.719Z,3.00
2019-03-16T18:12:40.588Z,3.20
2019-03-16T18:17:34.485Z,3.20
2019-03-16T18:22:28.377Z,9.93
2019-03-16T18:27:22.278Z,4.17
2019-03-16T18:32:16.306Z,2.93
2019-03-16T18:37:10.274Z,3.70
2019-03-16T18:42:04.222Z,3.50
2019-03-16T18:46:58.204Z,3.70
2019-03-16T18:51:52.114Z,3.20
2019-03-16T18:56:46.114Z,4.00
2019-03-16T19:01:40.018Z,4.23
2019-03-16T19:06:33.896Z,3.97
2019-03-16T19:11:27.928Z,3.77
2019-03-16T19:16:21.801Z,4.20
2019-03-16T19:21:15.684Z,4.50
2019-03-16T19:26:09.705Z,4.73
2019-03-16T19:31:03.816Z,4.97
2019-03-16T19:35:57.780Z,4.23
2019-03-16T19:40:51.784Z,6.50
2019-03-16T19:45:45.645Z,4.10
2019-03-16T19:50:39.509Z,4.97
2019-03-16T19:55:33.498Z,4.10
2019-03-16T20:00:27.365Z,3.80
2019-03-16T20:05:21.981Z,3.50
2019-03-16T20:10:19.899Z,3.70
2019-03-16T20:15:14.413Z,4.70
2019-03-16T20:20:09.986Z,4.60
2019-03-16T20:25:04.324Z,5.17
2019-03-16T20:29:58.423Z,4.77
2019-03-16T20:34:52.340Z,4.50
2019-03-16T20:39:46.340Z,4.60
2019-03-16T20:44:40.364Z,4.70
2019-03-16T20:49:34.382Z,3.60
2019-03-16T20:54:28.392Z,4.50
2019-03-16T20:59:22.310Z,3.87
2019-03-16T21:04:16.213Z,4.30
2019-03-16T21:09:10.156Z,4.30
2019-03-16T21:14:04.253Z,4.50
2019-03-16T21:20:26.413Z,4.03
2019-03-16T21:25:20.569Z,4.37
2019-03-16T21:30:15.955Z,4.50
2019-03-16T21:35:09.995Z,4.00
2019-03-16T21:40:09.540Z,4.20
2019-03-16T21:45:06.116Z,3.87
2019-03-16T21:50:00.359Z,3.83
2019-03-16T21:54:54.629Z,4.70
2019-03-16T21:59:48.758Z,3.50
2019-03-16T22:04:42.650Z,3.53
2019-03-16T22:09:36.753Z,4.40
2019-03-16T22:14:30.623Z,3.63
2019-03-16T22:19:24.639Z,3.30
2019-03-16T22:24:18.548Z,3.50
2019-03-16T22:29:12.479Z,3.10
2019-03-16T22:34:06.444Z,2.90
2019-03-16T22:39:00.323Z,2.90
2019-03-16T22:43:54.269Z,3.90
2019-03-16T22:48:48.239Z,5.23
2019-03-16T22:53:42.099Z,6.30
2019-03-16T22:58:36.097Z,8.93
2019-03-16T23:03:30.046Z,6.83
2019-03-16T23:08:23.931Z,6.53
2019-03-16T23:13:17.910Z,5.50
2019-03-16T23:21:32.835Z,5.87
2019-03-16T23:26:38.043Z,5.57
2019-03-16T23:31:22.591Z,4.70
2019-03-16T23:36:16.457Z,4.80
2019-03-16T23:41:10.462Z,6.17
2019-03-16T23:46:04.324Z,5.13
2019-03-16T23:50:58.313Z,5.97
2019-03-16T23:55:52.241Z,4.87
